sensor_id;sensor_type;location;lat;lon;timestamp;P1;durP1;ratioP1;P2;durP2;ratioP2
18360;SDS011;9308;48.550;9.108;2022-10-23T00:00:28;6.40;;;5.73;;
18360;SDS011;9308;48.550;9.108;2022-10-23T00:02:53;7.23;;;6.47;;
18360;SDS011;9308;48.550;9.108;2022-10-23T00:05:19;5.97;;;5.47;;
18360;SDS011;9308;48.550;9.108;2022-10-23T00:07:48;8.93;;;5.40;;
18360;SDS011;9308;48.550;9.108;2022-10-23T00:10:18;6.13;;;5.53;;
18360;SDS011;9308;48.550;9.108;2022-10-23T00:12:44;7.03;;;5.40;;
18360;SDS011;9308;48.550;9.108;2022-10-23T00:15:10;9.10;;;7.10;;
18360;SDS011;9308;48.550;9.108;2022-10-23T00:17:35;6.47;;;5.97;;
18360;SDS011;9308;48.550;9.108;2022-10-23T00:20:04;10.17;;;6.07;;
18360;SDS011;9308;48.550;9.108;2022-10-23T00:22:31;7.87;;;6.37;;
18360;SDS011;9308;48.550;9.108;2022-10-23T00:24:56;7.27;;;5.60;;
18360;SDS011;9308;48.550;9.108;2022-10-23T00:27:22;5.50;;;5.00;;
18360;SDS011;9308;48.550;9.108;2022-10-23T00:29:47;5.83;;;5.30;;
18360;SDS011;9308;48.550;9.108;2022-10-23T00:32:13;6.60;;;5.67;;
18360;SDS011;9308;48.550;9.108;2022-10-23T00:34:38;7.17;;;5.47;;
18360;SDS011;9308;48.550;9.108;2022-10-23T00:37:04;5.90;;;5.33;;
18360;SDS011;9308;48.550;9.108;2022-10-23T00:39:29;7.27;;;5.40;;
18360;SDS011;9308;48.550;9.108;2022-10-23T00:41:55;6.63;;;4.90;;
18360;SDS011;9308;48.550;9.108;2022-10-23T00:46:46;5.47;;;4.97;;
18360;SDS011;9308;48.550;9.108;2022-10-23T00:49:11;6.70;;;6.00;;
18360;SDS011;9308;48.550;9.108;2022-10-23T00:51:39;6.17;;;5.70;;
18360;SDS011;9308;48.550;9.108;2022-10-23T00:54:13;6.23;;;5.00;;
18360;SDS011;9308;48.550;9.108;2022-10-23T00:56:41;6.40;;;5.23;;
18360;SDS011;9308;48.550;9.108;2022-10-23T00:59:08;8.63;;;5.30;;
18360;SDS011;9308;48.550;9.108;2022-10-23T01:01:33;8.50;;;4.93;;
18360;SDS011;9308;48.550;9.108;2022-10-23T01:04:00;5.80;;;5.20;;
18360;SDS011;9308;48.550;9.108;2022-10-23T01:09:08;4.73;;;4.33;;
18360;SDS011;9308;48.550;9.108;2022-10-23T01:11:47;10.53;;;4.83;;
18360;SDS011;9308;48.550;9.108;2022-10-23T01:14:22;5.33;;;4.93;;
18360;SDS011;9308;48.550;9.108;2022-10-23T01:16:59;5.30;;;4.80;;
18360;SDS011;9308;48.550;9.108;2022-10-23T01:19:47;5.10;;;4.60;;
18360;SDS011;9308;48.550;9.108;2022-10-23T01:22:45;6.43;;;4.13;;
18360;SDS011;9308;48.550;9.108;2022-10-23T01:25:30;7.23;;;4.40;;
18360;SDS011;9308;48.550;9.108;2022-10-23T01:28:24;5.63;;;4.77;;
18360;SDS011;9308;48.550;9.108;2022-10-23T01:30:54;7.20;;;5.20;;
18360;SDS011;9308;48.550;9.108;2022-10-23T01:33:24;6.53;;;5.70;;
18360;SDS011;9308;48.550;9.108;2022-10-23T01:35:58;7.67;;;6.27;;
18360;SDS011;9308;48.550;9.108;2022-10-23T01:38:51;8.87;;;8.07;;
18360;SDS011;9308;48.550;9.108;2022-10-23T01:41:27;9.20;;;8.30;;
18360;SDS011;9308;48.550;9.108;2022-10-23T01:47:12;7.00;;;6.30;;
18360;SDS011;9308;48.550;9.108;2022-10-23T01:49:40;6.37;;;5.73;;
18360;SDS011;9308;48.550;9.108;2022-10-23T01:52:07;6.50;;;5.90;;
18360;SDS011;9308;48.550;9.108;2022-10-23T01:54:39;9.23;;;6.93;;
18360;SDS011;9308;48.550;9.108;2022-10-23T01:57:09;7.00;;;6.30;;
18360;SDS011;9308;48.550;9.108;2022-10-23T01:59:38;7.10;;;6.40;;
18360;SDS011;9308;48.550;9.108;2022-10-23T02:02:07;7.20;;;5.97;;
18360;SDS011;9308;48.550;9.108;2022-10-23T02:04:37;6.37;;;5.30;;
18360;SDS011;9308;48.550;9.108;2022-10-23T02:07:06;5.97;;;5.37;;
18360;SDS011;9308;48.550;9.108;2022-10-23T02:09:32;5.57;;;5.07;;
18360;SDS011;9308;48.550;9.108;2022-10-23T02:12:17;9.20;;;5.10;;
18360;SDS011;9308;48.550;9.108;2022-10-23T02:15:07;5.80;;;5.30;;
18360;SDS011;9308;48.550;9.108;2022-10-23T02:20:16;5.73;;;5.13;;
18360;SDS011;9308;48.550;9.108;2022-10-23T02:22:44;4.97;;;4.57;;
18360;SDS011;9308;48.550;9.108;2022-10-23T02:25:36;4.70;;;4.40;;
18360;SDS011;9308;48.550;9.108;2022-10-23T02:28:09;5.00;;;4.60;;
18360;SDS011;9308;48.550;9.108;2022-10-23T02:30:40;4.40;;;4.00;;
18360;SDS011;9308;48.550;9.108;2022-10-23T02:33:09;4.37;;;3.97;;
18360;SDS011;9308;48.550;9.108;2022-10-23T02:35:36;5.83;;;5.37;;
18360;SDS011;9308;48.550;9.108;2022-10-23T02:38:02;6.17;;;4.50;;
18360;SDS011;9308;48.550;9.108;2022-10-23T02:40:34;8.40;;;5.00;;
18360;SDS011;9308;48.550;9.108;2022-10-23T02:46:10;5.13;;;4.43;;
18360;SDS011;9308;48.550;9.108;2022-10-23T02:48:54;4.27;;;3.90;;
18360;SDS011;9308;48.550;9.108;2022-10-23T02:51:58;6.03;;;4.37;;
18360;SDS011;9308;48.550;9.108;2022-10-23T02:54:24;6.03;;;3.97;;
18360;SDS011;9308;48.550;9.108;2022-10-23T02:57:10;5.37;;;4.77;;
18360;SDS011;9308;48.550;9.108;2022-10-23T03:02:36;5.00;;;4.27;;
18360;SDS011;9308;48.550;9.108;2022-10-23T03:05:09;4.27;;;3.80;;
18360;SDS011;9308;48.550;9.108;2022-10-23T03:07:39;4.53;;;4.03;;
18360;SDS011;9308;48.550;9.108;2022-10-23T03:10:05;6.37;;;3.90;;
18360;SDS011;9308;48.550;9.108;2022-10-23T03:12:31;4.13;;;3.83;;
18360;SDS011;9308;48.550;9.108;2022-10-23T03:14:57;4.00;;;3.70;;
18360;SDS011;9308;48.550;9.108;2022-10-23T03:17:23;4.83;;;4.43;;
18360;SDS011;9308;48.550;9.108;2022-10-23T03:19:49;6.03;;;4.07;;
18360;SDS011;9308;48.550;9.108;2022-10-23T03:22:15;4.80;;;4.47;;
18360;SDS011;9308;48.550;9.108;2022-10-23T03:24:40;4.90;;;4.07;;
18360;SDS011;9308;48.550;9.108;2022-10-23T03:27:06;7.47;;;6.40;;
18360;SDS011;9308;48.550;9.108;2022-10-23T03:29:31;9.10;;;5.80;;
18360;SDS011;9308;48.550;9.108;2022-10-23T03:31:57;6.60;;;6.10;;
18360;SDS011;9308;48.550;9.108;2022-10-23T03:34:22;6.60;;;5.00;;
18360;SDS011;9308;48.550;9.108;2022-10-23T03:36:48;5.90;;;5.33;;
18360;SDS011;9308;48.550;9.108;2022-10-23T03:39:13;7.90;;;5.20;;
18360;SDS011;9308;48.550;9.108;2022-10-23T03:41:39;7.93;;;6.23;;
18360;SDS011;9308;48.550;9.108;2022-10-23T03:44:04;5.50;;;5.10;;
18360;SDS011;9308;48.550;9.108;2022-10-23T03:46:29;5.50;;;5.00;;
18360;SDS011;9308;48.550;9.108;2022-10-23T03:48:55;5.10;;;4.40;;
18360;SDS011;9308;48.550;9.108;2022-10-23T03:51:23;9.30;;;5.10;;
18360;SDS011;9308;48.550;9.108;2022-10-23T03:53:49;7.83;;;5.47;;
18360;SDS011;9308;48.550;9.108;2022-10-23T03:56:15;8.47;;;5.10;;
18360;SDS011;9308;48.550;9.108;2022-10-23T03:58:40;5.97;;;4.97;;
18360;SDS011;9308;48.550;9.108;2022-10-23T04:01:06;5.93;;;5.33;;
18360;SDS011;9308;48.550;9.108;2022-10-23T04:03:31;5.00;;;4.60;;
18360;SDS011;9308;48.550;9.108;2022-10-23T04:05:57;6.40;;;4.93;;
18360;SDS011;9308;48.550;9.108;2022-10-23T04:08:22;6.93;;;5.27;;
18360;SDS011;9308;48.550;9.108;2022-10-23T04:10:48;7.17;;;6.43;;
18360;SDS011;9308;48.550;9.108;2022-10-23T04:13:13;5.50;;;4.97;;
18360;SDS011;9308;48.550;9.108;2022-10-23T04:15:38;6.20;;;5.60;;
18360;SDS011;9308;48.550;9.108;2022-10-23T04:18:04;5.27;;;4.87;;
18360;SDS011;9308;48.550;9.108;2022-10-23T04:20:30;8.13;;;5.30;;
18360;SDS011;9308;48.550;9.108;2022-10-23T04:22:56;5.30;;;4.90;;
18360;SDS011;9308;48.550;9.108;2022-10-23T04:25:21;4.30;;;4.00;;
18360;SDS011;9308;48.550;9.108;2022-10-23T04:27:47;6.23;;;5.00;;
18360;SDS011;9308;48.550;9.108;2022-10-23T04:30:13;5.23;;;4.73;;
18360;SDS011;9308;48.550;9.108;2022-10-23T04:32:38;4.77;;;4.37;;
18360;SDS011;9308;48.550;9.108;2022-10-23T04:35:04;8.53;;;4.57;;
18360;SDS011;9308;48.550;9.108;2022-10-23T04:37:30;4.63;;;4.33;;
18360;SDS011;9308;48.550;9.108;2022-10-23T04:39:55;4.70;;;4.40;;
18360;SDS011;9308;48.550;9.108;2022-10-23T04:42:21;5.40;;;4.43;;
18360;SDS011;9308;48.550;9.108;2022-10-23T04:44:46;5.50;;;4.37;;
18360;SDS011;9308;48.550;9.108;2022-10-23T04:47:12;4.90;;;4.40;;
18360;SDS011;9308;48.550;9.108;2022-10-23T04:49:37;4.97;;;4.53;;
18360;SDS011;9308;48.550;9.108;2022-10-23T04:52:03;5.87;;;5.30;;
18360;SDS011;9308;48.550;9.108;2022-10-23T04:54:33;5.30;;;4.83;;
18360;SDS011;9308;48.550;9.108;2022-10-23T04:56:59;5.70;;;5.07;;
18360;SDS011;9308;48.550;9.108;2022-10-23T04:59:25;6.67;;;5.70;;
18360;SDS011;9308;48.550;9.108;2022-10-23T05:01:50;5.60;;;5.00;;
18360;SDS011;9308;48.550;9.108;2022-10-23T05:04:16;5.90;;;5.40;;
18360;SDS011;9308;48.550;9.108;2022-10-23T05:06:41;6.33;;;5.80;;
18360;SDS011;9308;48.550;9.108;2022-10-23T05:09:07;6.20;;;5.63;;
18360;SDS011;9308;48.550;9.108;2022-10-23T05:11:32;7.67;;;7.00;;
18360;SDS011;9308;48.550;9.108;2022-10-23T05:13:58;7.27;;;6.67;;
18360;SDS011;9308;48.550;9.108;2022-10-23T05:16:28;7.20;;;6.70;;
18360;SDS011;9308;48.550;9.108;2022-10-23T05:19:01;6.63;;;5.90;;
18360;SDS011;9308;48.550;9.108;2022-10-23T05:21:28;6.20;;;5.80;;
18360;SDS011;9308;48.550;9.108;2022-10-23T05:23:58;6.13;;;5.60;;
18360;SDS011;9308;48.550;9.108;2022-10-23T05:26:26;5.80;;;5.40;;
18360;SDS011;9308;48.550;9.108;2022-10-23T05:28:52;5.63;;;5.13;;
18360;SDS011;9308;48.550;9.108;2022-10-23T05:31:18;8.77;;;5.73;;
18360;SDS011;9308;48.550;9.108;2022-10-23T05:33:45;5.40;;;5.00;;
18360;SDS011;9308;48.550;9.108;2022-10-23T05:36:11;5.30;;;4.90;;
18360;SDS011;9308;48.550;9.108;2022-10-23T05:38:38;5.23;;;4.73;;
18360;SDS011;9308;48.550;9.108;2022-10-23T05:41:03;4.93;;;4.60;;
18360;SDS011;9308;48.550;9.108;2022-10-23T05:43:29;5.30;;;4.80;;
18360;SDS011;9308;48.550;9.108;2022-10-23T05:45:55;5.43;;;4.97;;
18360;SDS011;9308;48.550;9.108;2022-10-23T05:48:21;5.13;;;4.70;;
18360;SDS011;9308;48.550;9.108;2022-10-23T05:50:47;5.57;;;4.50;;
18360;SDS011;9308;48.550;9.108;2022-10-23T05:53:12;5.07;;;4.63;;
18360;SDS011;9308;48.550;9.108;2022-10-23T05:55:38;6.73;;;6.13;;
18360;SDS011;9308;48.550;9.108;2022-10-23T05:58:03;9.17;;;8.00;;
18360;SDS011;9308;48.550;9.108;2022-10-23T06:00:29;9.30;;;8.40;;
18360;SDS011;9308;48.550;9.108;2022-10-23T06:02:55;8.43;;;6.83;;
18360;SDS011;9308;48.550;9.108;2022-10-23T06:05:22;9.80;;;9.00;;
18360;SDS011;9308;48.550;9.108;2022-10-23T06:07:48;11.90;;;10.83;;
18360;SDS011;9308;48.550;9.108;2022-10-23T06:10:13;6.97;;;6.27;;
18360;SDS011;9308;48.550;9.108;2022-10-23T06:12:39;8.20;;;6.57;;
18360;SDS011;9308;48.550;9.108;2022-10-23T06:15:05;8.57;;;6.33;;
18360;SDS011;9308;48.550;9.108;2022-10-23T06:17:31;6.23;;;5.73;;
18360;SDS011;9308;48.550;9.108;2022-10-23T06:19:56;6.43;;;5.87;;
18360;SDS011;9308;48.550;9.108;2022-10-23T06:22:28;6.20;;;5.60;;
18360;SDS011;9308;48.550;9.108;2022-10-23T06:24:54;6.13;;;5.50;;
18360;SDS011;9308;48.550;9.108;2022-10-23T06:27:19;5.77;;;5.27;;
18360;SDS011;9308;48.550;9.108;2022-10-23T06:29:45;7.20;;;5.73;;
18360;SDS011;9308;48.550;9.108;2022-10-23T06:32:11;8.23;;;7.63;;
18360;SDS011;9308;48.550;9.108;2022-10-23T06:34:37;6.90;;;6.40;;
18360;SDS011;9308;48.550;9.108;2022-10-23T06:37:02;7.13;;;6.53;;
18360;SDS011;9308;48.550;9.108;2022-10-23T06:39:28;6.23;;;5.73;;
18360;SDS011;9308;48.550;9.108;2022-10-23T06:41:53;6.17;;;5.67;;
18360;SDS011;9308;48.550;9.108;2022-10-23T06:44:19;9.10;;;8.20;;
18360;SDS011;9308;48.550;9.108;2022-10-23T06:46:44;7.00;;;5.70;;
18360;SDS011;9308;48.550;9.108;2022-10-23T06:49:14;6.10;;;5.53;;
18360;SDS011;9308;48.550;9.108;2022-10-23T06:51:40;5.70;;;5.20;;
18360;SDS011;9308;48.550;9.108;2022-10-23T06:54:06;7.50;;;6.70;;
18360;SDS011;9308;48.550;9.108;2022-10-23T06:56:32;8.60;;;7.00;;
18360;SDS011;9308;48.550;9.108;2022-10-23T06:58:59;7.10;;;5.70;;
18360;SDS011;9308;48.550;9.108;2022-10-23T07:01:24;5.73;;;5.13;;
18360;SDS011;9308;48.550;9.108;2022-10-23T07:03:50;5.03;;;4.53;;
18360;SDS011;9308;48.550;9.108;2022-10-23T07:06:15;5.47;;;4.97;;
18360;SDS011;9308;48.550;9.108;2022-10-23T07:08:41;5.43;;;4.93;;
18360;SDS011;9308;48.550;9.108;2022-10-23T07:11:07;6.13;;;4.70;;
18360;SDS011;9308;48.550;9.108;2022-10-23T07:13:34;5.83;;;5.33;;
18360;SDS011;9308;48.550;9.108;2022-10-23T07:16:13;6.70;;;5.17;;
18360;SDS011;9308;48.550;9.108;2022-10-23T07:18:43;6.40;;;6.00;;
18360;SDS011;9308;48.550;9.108;2022-10-23T07:21:09;7.10;;;6.40;;
18360;SDS011;9308;48.550;9.108;2022-10-23T07:23:35;6.50;;;5.90;;
18360;SDS011;9308;48.550;9.108;2022-10-23T07:26:02;5.53;;;5.10;;
18360;SDS011;9308;48.550;9.108;2022-10-23T07:28:31;7.40;;;5.47;;
18360;SDS011;9308;48.550;9.108;2022-10-23T07:30:57;6.63;;;5.30;;
18360;SDS011;9308;48.550;9.108;2022-10-23T07:33:23;5.97;;;5.50;;
18360;SDS011;9308;48.550;9.108;2022-10-23T07:35:49;6.10;;;5.20;;
18360;SDS011;9308;48.550;9.108;2022-10-23T07:38:14;4.90;;;4.50;;
18360;SDS011;9308;48.550;9.108;2022-10-23T07:40:40;8.03;;;5.40;;
18360;SDS011;9308;48.550;9.108;2022-10-23T07:43:05;5.97;;;5.53;;
18360;SDS011;9308;48.550;9.108;2022-10-23T07:45:33;6.07;;;5.57;;
18360;SDS011;9308;48.550;9.108;2022-10-23T07:47:59;6.80;;;6.20;;
18360;SDS011;9308;48.550;9.108;2022-10-23T07:50:24;6.63;;;6.03;;
18360;SDS011;9308;48.550;9.108;2022-10-23T07:52:49;7.10;;;6.37;;
18360;SDS011;9308;48.550;9.108;2022-10-23T07:55:15;7.67;;;6.97;;
18360;SDS011;9308;48.550;9.108;2022-10-23T07:57:41;6.33;;;5.83;;
18360;SDS011;9308;48.550;9.108;2022-10-23T08:00:06;7.43;;;6.37;;
18360;SDS011;9308;48.550;9.108;2022-10-23T08:02:33;6.27;;;4.70;;
18360;SDS011;9308;48.550;9.108;2022-10-23T08:04:58;4.90;;;4.50;;
18360;SDS011;9308;48.550;9.108;2022-10-23T08:07:24;5.37;;;4.60;;
18360;SDS011;9308;48.550;9.108;2022-10-23T08:09:49;5.10;;;3.80;;
18360;SDS011;9308;48.550;9.108;2022-10-23T08:12:15;4.80;;;4.40;;
18360;SDS011;9308;48.550;9.108;2022-10-23T08:14:40;4.40;;;4.00;;
18360;SDS011;9308;48.550;9.108;2022-10-23T08:17:06;4.43;;;4.07;;
18360;SDS011;9308;48.550;9.108;2022-10-23T08:19:34;3.63;;;3.43;;
18360;SDS011;9308;48.550;9.108;2022-10-23T08:22:00;3.47;;;2.90;;
18360;SDS011;9308;48.550;9.108;2022-10-23T08:24:25;3.27;;;2.70;;
18360;SDS011;9308;48.550;9.108;2022-10-23T08:26:51;3.47;;;3.20;;
18360;SDS011;9308;48.550;9.108;2022-10-23T08:29:16;2.80;;;2.60;;
18360;SDS011;9308;48.550;9.108;2022-10-23T08:31:42;4.17;;;3.07;;
18360;SDS011;9308;48.550;9.108;2022-10-23T08:34:07;2.60;;;2.40;;
18360;SDS011;9308;48.550;9.108;2022-10-23T08:36:33;3.23;;;2.63;;
18360;SDS011;9308;48.550;9.108;2022-10-23T08:39:00;3.20;;;2.47;;
18360;SDS011;9308;48.550;9.108;2022-10-23T08:47:16;2.67;;;2.33;;
18360;SDS011;9308;48.550;9.108;2022-10-23T08:49:45;7.57;;;3.00;;
18360;SDS011;9308;48.550;9.108;2022-10-23T08:52:15;4.80;;;2.80;;
18360;SDS011;9308;48.550;9.108;2022-10-23T08:57:21;3.00;;;2.80;;
18360;SDS011;9308;48.550;9.108;2022-10-23T09:00:00;2.93;;;2.73;;
18360;SDS011;9308;48.550;9.108;2022-10-23T09:02:29;3.00;;;2.67;;
18360;SDS011;9308;48.550;9.108;2022-10-23T09:05:00;5.20;;;2.60;;
18360;SDS011;9308;48.550;9.108;2022-10-23T09:07:38;2.60;;;2.10;;
18360;SDS011;9308;48.550;9.108;2022-10-23T09:18:58;2.43;;;2.23;;
18360;SDS011;9308;48.550;9.108;2022-10-23T09:21:24;2.57;;;2.10;;
18360;SDS011;9308;48.550;9.108;2022-10-23T09:23:51;2.53;;;2.33;;
18360;SDS011;9308;48.550;9.108;2022-10-23T09:26:17;2.27;;;1.80;;
18360;SDS011;9308;48.550;9.108;2022-10-23T09:28:49;2.63;;;1.90;;
18360;SDS011;9308;48.550;9.108;2022-10-23T09:31:19;2.13;;;1.93;;
18360;SDS011;9308;48.550;9.108;2022-10-23T09:33:57;3.00;;;1.70;;
18360;SDS011;9308;48.550;9.108;2022-10-23T09:36:25;4.13;;;2.27;;
18360;SDS011;9308;48.550;9.108;2022-10-23T09:38:53;1.83;;;1.73;;
18360;SDS011;9308;48.550;9.108;2022-10-23T09:43:46;2.47;;;1.97;;
18360;SDS011;9308;48.550;9.108;2022-10-23T09:46:23;1.97;;;1.87;;
18360;SDS011;9308;48.550;9.108;2022-10-23T09:48:55;1.90;;;1.57;;
18360;SDS011;9308;48.550;9.108;2022-10-23T09:51:22;1.97;;;1.77;;
18360;SDS011;9308;48.550;9.108;2022-10-23T09:53:48;2.27;;;1.70;;
18360;SDS011;9308;48.550;9.108;2022-10-23T09:59:00;1.87;;;1.77;;
18360;SDS011;9308;48.550;9.108;2022-10-23T10:01:28;1.93;;;1.83;;
18360;SDS011;9308;48.550;9.108;2022-10-23T10:04:00;2.20;;;1.70;;
18360;SDS011;9308;48.550;9.108;2022-10-23T10:06:27;2.00;;;1.90;;
18360;SDS011;9308;48.550;9.108;2022-10-23T10:09:14;1.87;;;1.77;;
18360;SDS011;9308;48.550;9.108;2022-10-23T10:25:43;2.20;;;2.00;;
18360;SDS011;9308;48.550;9.108;2022-10-23T10:28:21;2.27;;;1.87;;
18360;SDS011;9308;48.550;9.108;2022-10-23T10:30:59;2.27;;;1.70;;
18360;SDS011;9308;48.550;9.108;2022-10-23T10:36:20;1.90;;;1.63;;
18360;SDS011;9308;48.550;9.108;2022-10-23T10:47:51;1.73;;;1.63;;
18360;SDS011;9308;48.550;9.108;2022-10-23T10:56:04;1.60;;;1.50;;
18360;SDS011;9308;48.550;9.108;2022-10-23T10:58:41;1.83;;;1.47;;
18360;SDS011;9308;48.550;9.108;2022-10-23T11:04:16;1.80;;;1.60;;
18360;SDS011;9308;48.550;9.108;2022-10-23T11:06:52;3.33;;;1.43;;
18360;SDS011;9308;48.550;9.108;2022-10-23T11:09:20;2.23;;;1.40;;
18360;SDS011;9308;48.550;9.108;2022-10-23T11:11:49;2.33;;;1.70;;
18360;SDS011;9308;48.550;9.108;2022-10-23T11:14:15;2.80;;;1.53;;
18360;SDS011;9308;48.550;9.108;2022-10-23T11:16:47;2.50;;;2.30;;
18360;SDS011;9308;48.550;9.108;2022-10-23T11:19:36;2.37;;;1.90;;
18360;SDS011;9308;48.550;9.108;2022-10-23T11:22:17;2.53;;;2.20;;
18360;SDS011;9308;48.550;9.108;2022-10-23T11:27:47;2.80;;;2.60;;
18360;SDS011;9308;48.550;9.108;2022-10-23T11:35:47;3.30;;;3.00;;
18360;SDS011;9308;48.550;9.108;2022-10-23T11:38:34;3.20;;;2.90;;
18360;SDS011;9308;48.550;9.108;2022-10-23T11:41:24;3.20;;;2.70;;
18360;SDS011;9308;48.550;9.108;2022-10-23T11:43:57;3.20;;;2.90;;
18360;SDS011;9308;48.550;9.108;2022-10-23T11:46:31;3.83;;;2.90;;
18360;SDS011;9308;48.550;9.108;2022-10-23T11:48:59;3.97;;;2.77;;
18360;SDS011;9308;48.550;9.108;2022-10-23T11:51:28;2.50;;;1.80;;
18360;SDS011;9308;48.550;9.108;2022-10-23T11:56:38;2.63;;;2.33;;
18360;SDS011;9308;48.550;9.108;2022-10-23T11:59:29;2.27;;;2.07;;
18360;SDS011;9308;48.550;9.108;2022-10-23T12:01:57;3.43;;;2.70;;
18360;SDS011;9308;48.550;9.108;2022-10-23T12:04:44;2.20;;;1.97;;
18360;SDS011;9308;48.550;9.108;2022-10-23T12:07:15;2.20;;;1.80;;
18360;SDS011;9308;48.550;9.108;2022-10-23T12:13:25;4.30;;;1.70;;
18360;SDS011;9308;48.550;9.108;2022-10-23T12:15:53;3.70;;;2.20;;
18360;SDS011;9308;48.550;9.108;2022-10-23T12:18:19;2.97;;;2.10;;
18360;SDS011;9308;48.550;9.108;2022-10-23T12:21:01;1.60;;;1.50;;
18360;SDS011;9308;48.550;9.108;2022-10-23T12:27:00;1.97;;;1.77;;
18360;SDS011;9308;48.550;9.108;2022-10-23T12:39:57;2.93;;;1.50;;
18360;SDS011;9308;48.550;9.108;2022-10-23T12:42:23;1.73;;;1.63;;
18360;SDS011;9308;48.550;9.108;2022-10-23T12:44:58;2.00;;;1.90;;
18360;SDS011;9308;48.550;9.108;2022-10-23T12:47:24;3.27;;;1.80;;
18360;SDS011;9308;48.550;9.108;2022-10-23T12:49:50;2.03;;;1.93;;
18360;SDS011;9308;48.550;9.108;2022-10-23T12:52:18;2.07;;;1.70;;
18360;SDS011;9308;48.550;9.108;2022-10-23T12:54:45;2.53;;;2.07;;
18360;SDS011;9308;48.550;9.108;2022-10-23T12:57:19;2.00;;;1.80;;
18360;SDS011;9308;48.550;9.108;2022-10-23T12:59:56;2.30;;;1.80;;
18360;SDS011;9308;48.550;9.108;2022-10-23T13:02:27;2.13;;;1.93;;
18360;SDS011;9308;48.550;9.108;2022-10-23T13:04:54;2.10;;;1.90;;
18360;SDS011;9308;48.550;9.108;2022-10-23T13:07:24;4.93;;;1.80;;
18360;SDS011;9308;48.550;9.108;2022-10-23T13:09:51;2.60;;;2.40;;
18360;SDS011;9308;48.550;9.108;2022-10-23T13:12:22;2.40;;;2.30;;
18360;SDS011;9308;48.550;9.108;2022-10-23T13:14:57;3.03;;;2.33;;
18360;SDS011;9308;48.550;9.108;2022-10-23T13:22:44;2.10;;;2.00;;
18360;SDS011;9308;48.550;9.108;2022-10-23T13:25:25;2.70;;;2.20;;
18360;SDS011;9308;48.550;9.108;2022-10-23T13:28:02;2.30;;;2.10;;
18360;SDS011;9308;48.550;9.108;2022-10-23T13:30:37;2.00;;;1.80;;
18360;SDS011;9308;48.550;9.108;2022-10-23T13:36:01;2.47;;;1.90;;
18360;SDS011;9308;48.550;9.108;2022-10-23T13:38:37;1.87;;;1.77;;
18360;SDS011;9308;48.550;9.108;2022-10-23T13:41:05;2.23;;;2.00;;
18360;SDS011;9308;48.550;9.108;2022-10-23T13:43:42;1.73;;;1.63;;
18360;SDS011;9308;48.550;9.108;2022-10-23T13:46:18;1.80;;;1.70;;
18360;SDS011;9308;48.550;9.108;2022-10-23T13:48:46;2.20;;;2.10;;
18360;SDS011;9308;48.550;9.108;2022-10-23T13:51:12;2.10;;;2.00;;
18360;SDS011;9308;48.550;9.108;2022-10-23T13:53:59;2.63;;;2.20;;
18360;SDS011;9308;48.550;9.108;2022-10-23T13:56:25;3.43;;;2.20;;
18360;SDS011;9308;48.550;9.108;2022-10-23T13:58:51;2.27;;;1.97;;
18360;SDS011;9308;48.550;9.108;2022-10-23T14:01:21;7.03;;;2.30;;
18360;SDS011;9308;48.550;9.108;2022-10-23T14:03:48;2.23;;;2.03;;
18360;SDS011;9308;48.550;9.108;2022-10-23T14:06:14;3.10;;;2.60;;
18360;SDS011;9308;48.550;9.108;2022-10-23T14:08:39;3.33;;;2.57;;
18360;SDS011;9308;48.550;9.108;2022-10-23T14:11:05;2.87;;;2.63;;
18360;SDS011;9308;48.550;9.108;2022-10-23T14:13:31;2.37;;;2.17;;
18360;SDS011;9308;48.550;9.108;2022-10-23T14:15:56;3.03;;;2.60;;
18360;SDS011;9308;48.550;9.108;2022-10-23T14:18:22;3.10;;;2.57;;
18360;SDS011;9308;48.550;9.108;2022-10-23T14:20:47;3.20;;;2.50;;
18360;SDS011;9308;48.550;9.108;2022-10-23T14:23:13;6.33;;;2.60;;
18360;SDS011;9308;48.550;9.108;2022-10-23T14:25:38;3.67;;;3.10;;
18360;SDS011;9308;48.550;9.108;2022-10-23T14:28:04;2.60;;;2.40;;
18360;SDS011;9308;48.550;9.108;2022-10-23T14:30:29;4.23;;;2.70;;
18360;SDS011;9308;48.550;9.108;2022-10-23T14:32:55;3.40;;;2.60;;
18360;SDS011;9308;48.550;9.108;2022-10-23T14:35:20;4.73;;;2.63;;
18360;SDS011;9308;48.550;9.108;2022-10-23T14:37:46;3.30;;;3.10;;
18360;SDS011;9308;48.550;9.108;2022-10-23T14:40:11;3.40;;;2.40;;
18360;SDS011;9308;48.550;9.108;2022-10-23T14:42:37;2.80;;;2.10;;
18360;SDS011;9308;48.550;9.108;2022-10-23T14:45:02;2.93;;;2.73;;
18360;SDS011;9308;48.550;9.108;2022-10-23T14:47:28;2.40;;;2.20;;
18360;SDS011;9308;48.550;9.108;2022-10-23T14:49:54;3.60;;;2.60;;
18360;SDS011;9308;48.550;9.108;2022-10-23T14:52:20;2.67;;;2.47;;
18360;SDS011;9308;48.550;9.108;2022-10-23T14:54:46;3.30;;;3.00;;
18360;SDS011;9308;48.550;9.108;2022-10-23T14:57:11;2.70;;;2.47;;
18360;SDS011;9308;48.550;9.108;2022-10-23T14:59:40;3.03;;;2.70;;
18360;SDS011;9308;48.550;9.108;2022-10-23T15:02:07;3.23;;;2.93;;
18360;SDS011;9308;48.550;9.108;2022-10-23T15:04:34;2.80;;;2.37;;
18360;SDS011;9308;48.550;9.108;2022-10-23T15:07:00;5.37;;;2.40;;
18360;SDS011;9308;48.550;9.108;2022-10-23T15:09:25;5.17;;;2.37;;
18360;SDS011;9308;48.550;9.108;2022-10-23T15:11:51;2.60;;;2.40;;
18360;SDS011;9308;48.550;9.108;2022-10-23T15:14:16;3.07;;;2.20;;
18360;SDS011;9308;48.550;9.108;2022-10-23T15:16:42;4.03;;;2.60;;
18360;SDS011;9308;48.550;9.108;2022-10-23T15:19:11;2.93;;;2.40;;
18360;SDS011;9308;48.550;9.108;2022-10-23T15:21:38;3.60;;;2.60;;
18360;SDS011;9308;48.550;9.108;2022-10-23T15:24:04;3.23;;;2.80;;
18360;SDS011;9308;48.550;9.108;2022-10-23T15:26:29;7.20;;;3.83;;
18360;SDS011;9308;48.550;9.108;2022-10-23T15:28:56;5.53;;;3.70;;
18360;SDS011;9308;48.550;9.108;2022-10-23T15:34:07;4.20;;;3.80;;
18360;SDS011;9308;48.550;9.108;2022-10-23T15:36:34;3.93;;;3.73;;
18360;SDS011;9308;48.550;9.108;2022-10-23T15:39:00;5.03;;;4.10;;
18360;SDS011;9308;48.550;9.108;2022-10-23T15:41:26;4.63;;;4.23;;
18360;SDS011;9308;48.550;9.108;2022-10-23T15:43:54;3.90;;;3.60;;
18360;SDS011;9308;48.550;9.108;2022-10-23T15:46:20;6.40;;;5.83;;
18360;SDS011;9308;48.550;9.108;2022-10-23T15:48:45;6.87;;;6.30;;
18360;SDS011;9308;48.550;9.108;2022-10-23T15:51:11;9.63;;;8.73;;
18360;SDS011;9308;48.550;9.108;2022-10-23T15:53:36;16.70;;;15.20;;
18360;SDS011;9308;48.550;9.108;2022-10-23T15:56:02;21.10;;;18.93;;
18360;SDS011;9308;48.550;9.108;2022-10-23T15:58:28;39.47;;;35.43;;
18360;SDS011;9308;48.550;9.108;2022-10-23T16:00:53;54.30;;;48.53;;
18360;SDS011;9308;48.550;9.108;2022-10-23T16:03:19;41.00;;;36.80;;
18360;SDS011;9308;48.550;9.108;2022-10-23T16:05:44;47.77;;;42.53;;
18360;SDS011;9308;48.550;9.108;2022-10-23T16:08:09;44.70;;;39.87;;
18360;SDS011;9308;48.550;9.108;2022-10-23T16:10:39;40.57;;;35.43;;
18360;SDS011;9308;48.550;9.108;2022-10-23T16:13:06;26.47;;;23.77;;
18360;SDS011;9308;48.550;9.108;2022-10-23T16:15:35;22.07;;;19.73;;
18360;SDS011;9308;48.550;9.108;2022-10-23T16:18:01;16.63;;;14.93;;
18360;SDS011;9308;48.550;9.108;2022-10-23T16:20:27;11.57;;;10.50;;
18360;SDS011;9308;48.550;9.108;2022-10-23T16:22:52;9.67;;;8.77;;
18360;SDS011;9308;48.550;9.108;2022-10-23T16:25:19;10.73;;;9.00;;
18360;SDS011;9308;48.550;9.108;2022-10-23T16:27:44;11.40;;;10.17;;
18360;SDS011;9308;48.550;9.108;2022-10-23T16:30:10;10.00;;;8.97;;
18360;SDS011;9308;48.550;9.108;2022-10-23T16:32:41;12.20;;;8.90;;
18360;SDS011;9308;48.550;9.108;2022-10-23T16:35:07;9.90;;;8.97;;
18360;SDS011;9308;48.550;9.108;2022-10-23T16:37:33;13.23;;;12.07;;
18360;SDS011;9308;48.550;9.108;2022-10-23T16:39:59;12.07;;;10.97;;
18360;SDS011;9308;48.550;9.108;2022-10-23T16:42:26;17.50;;;11.73;;
18360;SDS011;9308;48.550;9.108;2022-10-23T16:44:52;13.70;;;12.30;;
18360;SDS011;9308;48.550;9.108;2022-10-23T16:47:17;12.53;;;11.33;;
18360;SDS011;9308;48.550;9.108;2022-10-23T16:49:43;13.33;;;11.77;;
18360;SDS011;9308;48.550;9.108;2022-10-23T16:52:08;15.00;;;12.90;;
18360;SDS011;9308;48.550;9.108;2022-10-23T16:54:34;13.43;;;11.90;;
18360;SDS011;9308;48.550;9.108;2022-10-23T16:56:59;11.47;;;10.47;;
18360;SDS011;9308;48.550;9.108;2022-10-23T16:59:25;10.33;;;9.17;;
18360;SDS011;9308;48.550;9.108;2022-10-23T17:01:50;7.20;;;6.50;;